createdAt,value
2019-03-31T00:00:25.279Z,21.42
2019-03-31T00:02:53.512Z,21.41
2019-03-31T00:05:21.733Z,21.40
2019-03-31T00:07:49.970Z,21.40
2019-03-31T00:10:18.189Z,21.39
2019-03-31T00:12:46.424Z,21.37
2019-03-31T00:15:14.716Z,21.37
2019-03-31T00:17:43.276Z,21.36
2019-03-31T00:20:11.488Z,21.35
2019-03-31T00:22:39.735Z,21.34
2019-03-31T00:25:07.960Z,21.33
2019-03-31T00:27:36.195Z,21.33
2019-03-31T00:30:05.081Z,21.30
2019-03-31T00:32:33.312Z,21.30
2019-03-31T00:35:02.228Z,21.30
2019-03-31T00:37:30.464Z,21.28
2019-03-31T00:39:58.679Z,21.26
2019-03-31T00:42:26.910Z,21.26
2019-03-31T00:44:55.131Z,21.26
2019-03-31T00:47:23.366Z,21.26
2019-03-31T00:49:51.578Z,21.24
2019-03-31T00:52:19.806Z,21.24
2019-03-31T00:54:48.030Z,21.23
2019-03-31T00:57:16.243Z,21.23
2019-03-31T00:59:44.459Z,21.22
2019-03-31T01:02:14.586Z,21.20
2019-03-31T01:04:43.279Z,21.18
2019-03-31T01:07:11.496Z,21.19
2019-03-31T01:09:39.767Z,21.18
2019-03-31T01:12:07.982Z,21.17
2019-03-31T01:14:36.197Z,21.15
2019-03-31T01:17:06.322Z,21.14
2019-03-31T01:19:34.981Z,21.13
2019-03-31T01:22:03.201Z,21.12
2019-03-31T01:24:31.414Z,21.11
2019-03-31T01:26:59.630Z,21.11
2019-03-31T01:29:28.184Z,21.10
2019-03-31T01:31:56.771Z,21.09
2019-03-31T01:34:25.092Z,21.08
2019-03-31T01:36:53.726Z,21.08
2019-03-31T01:39:23.195Z,21.06
2019-03-31T01:41:51.714Z,21.07
2019-03-31T01:44:19.941Z,21.04
2019-03-31T01:46:48.153Z,21.06
2019-03-31T01:49:16.365Z,21.04
2019-03-31T01:51:44.918Z,21.02
2019-03-31T01:54:13.139Z,21.01
2019-03-31T01:56:44.625Z,21.01
2019-03-31T01:59:11.898Z,20.99
2019-03-31T02:01:40.400Z,20.97
2019-03-31T02:04:10.255Z,20.97
2019-03-31T02:06:38.471Z,20.96
2019-03-31T02:09:06.969Z,20.95
2019-03-31T02:11:35.174Z,20.94
2019-03-31T02:14:03.386Z,20.93
2019-03-31T02:16:31.606Z,20.91
2019-03-31T02:19:00.076Z,20.89
2019-03-31T02:21:28.286Z,20.88
2019-03-31T02:23:56.811Z,20.88
2019-03-31T02:26:25.295Z,20.88
2019-03-31T02:28:53.879Z,20.88
2019-03-31T02:31:22.102Z,20.86
2019-03-31T02:33:50.651Z,20.83
2019-03-31T02:36:19.109Z,20.84
2019-03-31T02:38:47.323Z,20.82
2019-03-31T02:41:15.554Z,20.80
2019-03-31T02:43:43.768Z,20.80
2019-03-31T02:46:12.319Z,20.80
2019-03-31T02:48:40.903Z,20.78
2019-03-31T02:51:09.136Z,20.77
2019-03-31T02:53:39.662Z,20.76
2019-03-31T02:56:08.000Z,20.73
2019-03-31T02:58:36.191Z,20.73
2019-03-31T03:01:04.415Z,20.72
2019-03-31T03:03:32.915Z,20.71
2019-03-31T03:06:01.153Z,20.71
2019-03-31T03:08:29.685Z,20.70
2019-03-31T03:10:58.729Z,20.67
2019-03-31T03:13:29.344Z,20.67
2019-03-31T03:16:01.091Z,20.65
2019-03-31T03:18:29.310Z,20.65
2019-03-31T03:20:57.807Z,20.65
2019-03-31T03:23:26.391Z,20.63
2019-03-31T03:25:56.760Z,20.63
2019-03-31T03:28:25.190Z,20.61
2019-03-31T03:30:53.914Z,20.62
2019-03-31T03:33:22.388Z,20.60
2019-03-31T03:35:50.601Z,20.59
2019-03-31T03:38:18.817Z,20.60
2019-03-31T03:40:47.039Z,20.54
2019-03-31T03:43:15.275Z,20.57
2019-03-31T03:45:43.843Z,20.57
2019-03-31T03:48:12.056Z,20.56
2019-03-31T03:50:40.602Z,20.54
2019-03-31T03:53:09.220Z,20.52
2019-03-31T03:55:37.447Z,20.53
2019-03-31T03:58:05.659Z,20.51
2019-03-31T04:00:34.154Z,20.50
2019-03-31T04:03:02.391Z,20.50
2019-03-31T04:05:30.618Z,20.49
2019-03-31T04:07:58.827Z,20.48
2019-03-31T04:10:45.347Z,20.47
2019-03-31T04:13:13.577Z,20.47
2019-03-31T04:15:41.792Z,20.47
2019-03-31T04:18:10.277Z,20.44
2019-03-31T04:20:39.475Z,20.43
2019-03-31T04:23:08.001Z,20.44
2019-03-31T04:25:36.238Z,20.44
2019-03-31T04:28:04.452Z,20.43
2019-03-31T04:30:32.746Z,20.43
2019-03-31T04:33:00.981Z,20.42
2019-03-31T04:35:29.536Z,20.44
2019-03-31T04:37:57.748Z,20.42
2019-03-31T04:40:26.300Z,20.39
2019-03-31T04:42:54.506Z,20.39
2019-03-31T04:45:22.721Z,20.40
2019-03-31T04:47:50.940Z,20.38
2019-03-31T04:50:19.155Z,20.37
2019-03-31T04:52:47.370Z,20.36
2019-03-31T04:55:15.585Z,20.35
2019-03-31T04:57:44.122Z,20.35
2019-03-31T05:00:12.344Z,20.34
2019-03-31T05:02:40.560Z,20.34
2019-03-31T05:05:08.776Z,20.32
2019-03-31T05:07:37.329Z,20.31
2019-03-31T05:10:06.534Z,20.32
2019-03-31T05:12:34.751Z,20.31
2019-03-31T05:15:02.973Z,20.29
2019-03-31T05:17:31.564Z,20.29
2019-03-31T05:20:00.353Z,20.29
2019-03-31T05:22:28.725Z,20.26
2019-03-31T05:24:57.202Z,20.26
2019-03-31T05:27:25.416Z,20.27
2019-03-31T05:29:53.626Z,20.24
2019-03-31T05:32:21.837Z,20.23
2019-03-31T05:34:50.046Z,20.21
2019-03-31T05:37:18.266Z,20.21
2019-03-31T05:39:46.469Z,20.19
2019-03-31T05:42:14.689Z,20.20
2019-03-31T05:44:42.898Z,20.18
2019-03-31T05:47:11.109Z,20.20
2019-03-31T05:49:39.654Z,20.19
2019-03-31T05:52:07.879Z,20.18
2019-03-31T05:54:36.091Z,20.20
2019-03-31T05:57:04.306Z,20.17
2019-03-31T05:59:32.516Z,20.17
2019-03-31T06:02:01.032Z,20.18
2019-03-31T06:04:33.393Z,20.15
2019-03-31T06:06:59.197Z,20.14
2019-03-31T06:09:27.718Z,20.17
2019-03-31T06:11:55.936Z,20.14
2019-03-31T06:14:24.140Z,20.14
2019-03-31T06:16:52.356Z,20.13
2019-03-31T06:19:20.907Z,20.13
2019-03-31T06:21:49.135Z,20.13
2019-03-31T06:24:17.347Z,20.12
2019-03-31T06:26:45.566Z,20.12
2019-03-31T06:29:14.116Z,20.13
2019-03-31T06:31:42.339Z,20.12
2019-03-31T06:34:10.872Z,20.12
2019-03-31T06:36:39.084Z,20.11
2019-03-31T06:39:08.142Z,20.11
2019-03-31T06:41:36.625Z,20.11
2019-03-31T06:44:04.837Z,20.10
2019-03-31T06:46:33.031Z,20.11
2019-03-31T06:49:01.249Z,20.11
2019-03-31T06:51:29.456Z,20.12
2019-03-31T06:53:57.661Z,20.11
2019-03-31T06:56:26.177Z,20.11
2019-03-31T06:58:54.862Z,20.10
2019-03-31T07:01:23.077Z,20.09
2019-03-31T07:03:51.279Z,20.11
2019-03-31T07:06:19.489Z,20.10
2019-03-31T07:08:47.706Z,20.11
2019-03-31T07:11:16.241Z,20.11
2019-03-31T07:13:44.723Z,20.12
2019-03-31T07:16:12.931Z,20.12
2019-03-31T07:18:42.005Z,20.12
2019-03-31T07:21:10.219Z,20.12
2019-03-31T07:23:38.435Z,20.12
2019-03-31T07:26:06.643Z,20.11
2019-03-31T07:28:35.196Z,20.11
2019-03-31T07:31:03.684Z,20.10
2019-03-31T07:33:31.893Z,20.10
2019-03-31T07:36:00.377Z,20.10
2019-03-31T07:38:38.904Z,20.11
2019-03-31T07:41:11.923Z,20.12
2019-03-31T07:43:29.004Z,20.12
2019-03-31T07:45:57.212Z,20.15
2019-03-31T07:48:25.752Z,20.19
2019-03-31T07:50:53.952Z,20.21
2019-03-31T07:53:22.160Z,20.23
2019-03-31T07:55:50.363Z,20.26
2019-03-31T07:58:18.941Z,20.26
2019-03-31T08:00:47.129Z,20.29
2019-03-31T08:03:15.616Z,20.34
2019-03-31T08:05:44.296Z,20.46
2019-03-31T08:08:12.644Z,20.58
2019-03-31T08:10:40.862Z,20.63
2019-03-31T08:13:09.447Z,20.64
2019-03-31T08:15:37.662Z,20.63
2019-03-31T08:18:06.348Z,20.64
2019-03-31T08:20:34.624Z,20.61
2019-03-31T08:23:03.151Z,20.60
2019-03-31T08:25:31.360Z,20.60
2019-03-31T08:27:59.576Z,20.58
2019-03-31T08:30:28.071Z,20.58
2019-03-31T08:32:56.543Z,20.60
2019-03-31T08:35:24.749Z,20.61
2019-03-31T08:37:52.976Z,20.62
2019-03-31T08:40:21.182Z,20.62
2019-03-31T08:42:49.403Z,20.60
2019-03-31T08:45:17.609Z,20.60
2019-03-31T08:47:45.828Z,20.60
2019-03-31T08:50:14.031Z,20.59
2019-03-31T08:52:42.259Z,20.60
2019-03-31T08:55:10.461Z,20.62
2019-03-31T08:57:38.681Z,20.63
2019-03-31T09:00:09.647Z,20.63
2019-03-31T09:02:38.123Z,20.63
2019-03-31T09:05:08.218Z,20.63
2019-03-31T09:07:36.416Z,20.65
2019-03-31T09:10:07.464Z,20.67
2019-03-31T09:12:36.039Z,20.69
2019-03-31T09:15:06.553Z,20.71
2019-03-31T09:17:34.757Z,20.72
2019-03-31T09:20:03.244Z,20.73
2019-03-31T09:22:31.477Z,20.72
2019-03-31T09:24:59.682Z,20.71
2019-03-31T09:27:27.896Z,20.70
2019-03-31T09:29:56.088Z,20.71
2019-03-31T09:32:24.289Z,20.71
2019-03-31T09:34:52.496Z,20.71
2019-03-31T09:37:21.046Z,20.72
2019-03-31T09:39:49.251Z,20.70
2019-03-31T09:42:17.710Z,20.71
2019-03-31T09:44:46.003Z,20.69
2019-03-31T09:47:14.208Z,20.67
2019-03-31T09:49:42.423Z,20.65
2019-03-31T09:52:10.621Z,20.64
2019-03-31T09:54:38.839Z,20.63
2019-03-31T09:57:07.030Z,20.63
2019-03-31T09:59:35.531Z,20.62
2019-03-31T10:02:04.016Z,20.61
2019-03-31T10:04:32.242Z,20.61
2019-03-31T10:07:00.430Z,20.61
2019-03-31T10:09:28.643Z,20.62
2019-03-31T10:11:56.837Z,20.62
2019-03-31T10:14:25.400Z,20.62
2019-03-31T10:16:53.594Z,20.64
2019-03-31T10:19:22.155Z,20.64
2019-03-31T10:21:50.633Z,20.65
2019-03-31T10:24:18.846Z,20.70
2019-03-31T10:26:47.041Z,20.73
2019-03-31T10:29:15.255Z,20.76
2019-03-31T10:31:43.745Z,20.79
2019-03-31T10:34:12.218Z,20.80
2019-03-31T10:36:44.878Z,20.83
2019-03-31T10:39:10.631Z,20.86
2019-03-31T10:41:38.830Z,20.90
2019-03-31T10:44:07.051Z,20.92
2019-03-31T10:46:35.241Z,20.95
2019-03-31T10:49:03.452Z,20.96
2019-03-31T10:51:31.946Z,20.98
2019-03-31T10:54:00.162Z,20.98
2019-03-31T10:56:28.369Z,20.99
2019-03-31T10:58:56.564Z,21.02
2019-03-31T11:01:24.770Z,21.06
2019-03-31T11:03:52.962Z,21.07
2019-03-31T11:06:21.166Z,21.06
2019-03-31T11:08:49.672Z,21.07
2019-03-31T11:11:17.869Z,21.06
2019-03-31T11:13:46.434Z,21.08
2019-03-31T11:16:14.904Z,21.08
2019-03-31T11:18:43.099Z,21.11
2019-03-31T11:21:12.939Z,21.12
2019-03-31T11:23:41.133Z,21.15
2019-03-31T11:26:09.645Z,21.17
2019-03-31T11:28:37.844Z,21.18
2019-03-31T11:31:06.038Z,21.18
2019-03-31T11:33:34.248Z,21.20
2019-03-31T11:36:02.452Z,21.19
2019-03-31T11:38:30.654Z,21.21
2019-03-31T11:40:58.856Z,21.23
2019-03-31T11:43:27.392Z,21.25
2019-03-31T11:45:55.852Z,21.26
2019-03-31T11:48:24.059Z,21.29
2019-03-31T11:50:52.612Z,21.30
2019-03-31T11:53:20.811Z,21.31
2019-03-31T11:55:49.011Z,21.30
2019-03-31T11:58:17.218Z,21.32
2019-03-31T12:00:53.042Z,21.34
2019-03-31T12:03:21.242Z,21.38
2019-03-31T12:05:49.442Z,21.39
2019-03-31T12:08:17.638Z,21.41
2019-03-31T12:10:46.201Z,21.41
2019-03-31T12:13:14.399Z,21.41
2019-03-31T12:15:42.951Z,21.44
2019-03-31T12:18:11.152Z,21.50
2019-03-31T12:20:39.363Z,21.56
2019-03-31T12:23:07.610Z,21.56
2019-03-31T12:25:35.778Z,21.57
2019-03-31T12:28:04.327Z,21.59
2019-03-31T12:30:32.524Z,21.56
2019-03-31T12:33:00.727Z,21.53
2019-03-31T12:35:28.933Z,21.50
2019-03-31T12:37:57.135Z,21.47
2019-03-31T12:40:30.570Z,21.46
2019-03-31T12:42:58.783Z,21.44
2019-03-31T12:45:26.989Z,21.44
2019-03-31T12:47:55.562Z,21.43
2019-03-31T12:50:23.757Z,21.41
2019-03-31T12:52:52.056Z,21.40
2019-03-31T12:55:20.257Z,21.41
2019-03-31T12:57:51.619Z,21.44
2019-03-31T13:00:18.989Z,21.48
2019-03-31T13:02:47.204Z,21.53
2019-03-31T13:05:15.393Z,21.58
2019-03-31T13:07:55.724Z,21.59
2019-03-31T13:10:13.534Z,21.59
2019-03-31T13:12:41.746Z,21.57
2019-03-31T13:15:09.945Z,21.55
2019-03-31T13:17:38.447Z,21.55
2019-03-31T13:20:07.117Z,21.58
2019-03-31T13:22:35.335Z,21.60
2019-03-31T13:25:04.473Z,21.67
2019-03-31T13:27:32.689Z,21.88
2019-03-31T13:30:00.890Z,22.01
2019-03-31T13:32:29.442Z,22.09
2019-03-31T13:34:57.638Z,22.17
2019-03-31T13:37:26.202Z,22.18
2019-03-31T13:39:54.396Z,22.17
2019-03-31T13:42:22.965Z,22.17
2019-03-31T13:44:51.162Z,22.20
2019-03-31T13:47:19.716Z,22.29
2019-03-31T13:49:47.914Z,22.33
2019-03-31T13:52:16.122Z,22.32
2019-03-31T13:54:44.318Z,22.35
2019-03-31T13:57:13.371Z,22.38
2019-03-31T13:59:42.126Z,22.45
2019-03-31T14:02:10.335Z,22.45
2019-03-31T14:04:51.057Z,22.54
2019-03-31T14:07:08.467Z,22.68
2019-03-31T14:09:37.075Z,22.73
2019-03-31T14:12:05.282Z,22.77
2019-03-31T14:14:33.479Z,22.77
2019-03-31T14:17:01.695Z,22.87
2019-03-31T14:19:29.889Z,22.86
2019-03-31T14:21:58.138Z,22.86
2019-03-31T14:24:27.143Z,22.83
2019-03-31T14:26:55.512Z,22.80
2019-03-31T14:29:23.706Z,22.75
2019-03-31T14:31:52.255Z,22.74
2019-03-31T14:34:20.533Z,22.72
2019-03-31T14:36:48.733Z,22.69
2019-03-31T14:39:17.375Z,22.68
2019-03-31T14:41:45.579Z,22.71
2019-03-31T14:44:13.778Z,22.83
2019-03-31T14:46:42.326Z,22.92
2019-03-31T14:49:10.527Z,22.91
2019-03-31T14:51:38.722Z,22.86
2019-03-31T14:54:16.110Z,22.88
2019-03-31T14:56:44.847Z,22.83
2019-03-31T14:59:14.731Z,22.79
2019-03-31T15:01:42.833Z,22.74
2019-03-31T15:04:11.030Z,22.72
2019-03-31T15:06:39.226Z,22.69
2019-03-31T15:09:08.830Z,22.66
2019-03-31T15:11:38.033Z,22.63
2019-03-31T15:14:06.709Z,22.61
2019-03-31T15:16:35.776Z,22.63
2019-03-31T15:19:04.691Z,22.66
2019-03-31T15:21:33.854Z,22.67
2019-03-31T15:24:02.064Z,22.72
2019-03-31T15:26:30.274Z,22.80
2019-03-31T15:28:58.479Z,22.89
2019-03-31T15:31:26.974Z,22.93
2019-03-31T15:33:55.542Z,22.68
2019-03-31T15:36:23.744Z,22.54
2019-03-31T15:38:52.295Z,22.57
2019-03-31T15:41:21.550Z,22.65
2019-03-31T15:43:50.091Z,22.74
2019-03-31T15:46:18.557Z,22.81
2019-03-31T15:48:47.039Z,22.87
2019-03-31T15:51:15.267Z,22.86
2019-03-31T15:53:43.467Z,22.86
2019-03-31T15:56:11.668Z,22.84
2019-03-31T15:58:40.143Z,22.86
2019-03-31T16:01:08.339Z,22.86
2019-03-31T16:03:38.011Z,22.86
2019-03-31T16:06:06.479Z,22.82
2019-03-31T16:08:34.681Z,22.80
2019-03-31T16:11:04.818Z,22.76
2019-03-31T16:13:33.390Z,22.74
2019-03-31T16:16:01.591Z,22.71
2019-03-31T16:18:29.794Z,22.72
2019-03-31T16:20:57.990Z,22.71
2019-03-31T16:23:26.201Z,22.71
2019-03-31T16:25:56.038Z,22.70
2019-03-31T16:28:24.574Z,22.69
2019-03-31T16:30:52.775Z,22.67
2019-03-31T16:33:20.979Z,22.67
2019-03-31T16:35:49.517Z,22.66
2019-03-31T16:38:20.709Z,22.63
2019-03-31T16:40:48.906Z,22.60
2019-03-31T16:43:17.110Z,22.59
2019-03-31T16:45:45.574Z,22.56
2019-03-31T16:48:13.778Z,22.53
2019-03-31T16:50:42.340Z,22.51
2019-03-31T16:53:10.823Z,22.34
2019-03-31T16:55:39.399Z,22.01
2019-03-31T16:58:09.483Z,21.99
2019-03-31T17:00:37.897Z,22.06
2019-03-31T17:03:06.098Z,22.10
2019-03-31T17:05:34.306Z,22.12
2019-03-31T17:08:02.514Z,22.14
2019-03-31T17:10:30.710Z,22.14
2019-03-31T17:12:59.185Z,22.12
2019-03-31T17:15:27.370Z,22.11
2019-03-31T17:17:55.929Z,22.09
2019-03-31T17:20:24.134Z,22.08
2019-03-31T17:22:52.690Z,22.05
2019-03-31T17:25:22.811Z,22.03
2019-03-31T17:27:51.307Z,22.00
2019-03-31T17:30:19.876Z,21.98
2019-03-31T17:32:48.075Z,21.95
2019-03-31T17:35:16.292Z,21.93
2019-03-31T17:37:44.473Z,21.88
2019-03-31T17:40:12.975Z,21.86
2019-03-31T17:42:41.177Z,21.83
2019-03-31T17:45:09.727Z,21.80
2019-03-31T17:47:37.930Z,21.78
2019-03-31T17:50:06.217Z,21.75
2019-03-31T17:52:34.421Z,21.72
2019-03-31T17:55:02.719Z,21.68
2019-03-31T17:57:31.017Z,21.64
2019-03-31T17:59:59.218Z,21.59
2019-03-31T18:02:27.772Z,21.55
2019-03-31T18:04:56.353Z,21.50
2019-03-31T18:07:24.550Z,21.48
2019-03-31T18:09:53.110Z,21.43
2019-03-31T18:12:21.586Z,21.40
2019-03-31T18:14:49.833Z,21.37
2019-03-31T18:17:18.039Z,21.34
2019-03-31T18:19:46.254Z,21.30
2019-03-31T18:22:16.769Z,21.26
2019-03-31T18:24:45.010Z,21.24
2019-03-31T18:27:13.481Z,21.21
2019-03-31T18:29:41.693Z,21.18
2019-03-31T18:32:10.255Z,21.15
2019-03-31T18:34:38.467Z,21.11
2019-03-31T18:37:07.013Z,21.08
2019-03-31T18:39:35.219Z,21.05
2019-03-31T18:42:03.448Z,21.03
2019-03-31T18:44:31.664Z,20.99
2019-03-31T18:46:59.867Z,20.97
2019-03-31T18:49:28.070Z,20.94
2019-03-31T18:51:56.280Z,20.93
2019-03-31T18:54:29.140Z,20.90
2019-03-31T18:57:04.743Z,20.88
2019-03-31T18:59:34.577Z,20.86
2019-03-31T19:02:20.997Z,20.84
2019-03-31T19:05:09.650Z,20.81
2019-03-31T19:07:48.352Z,20.79
2019-03-31T19:13:24.987Z,20.76
2019-03-31T19:15:55.192Z,20.72
2019-03-31T19:18:41.221Z,20.70
2019-03-31T19:21:16.934Z,20.66
2019-03-31T19:23:46.587Z,20.64
2019-03-31T19:26:19.153Z,20.63
2019-03-31T19:29:05.187Z,20.60
2019-03-31T19:31:35.343Z,20.58
2019-03-31T19:34:08.106Z,20.56
2019-03-31T19:36:51.352Z,20.55
2019-03-31T19:39:37.122Z,20.55
2019-03-31T19:42:24.838Z,20.52
2019-03-31T19:44:54.689Z,20.50
2019-03-31T19:47:27.760Z,20.50
2019-03-31T19:50:00.380Z,20.47
2019-03-31T19:52:46.109Z,20.44
2019-03-31T19:55:31.247Z,20.43
2019-03-31T19:58:09.926Z,20.40
2019-03-31T20:00:39.769Z,20.40
2019-03-31T20:03:18.191Z,20.37
2019-03-31T20:05:48.031Z,20.35
2019-03-31T20:08:27.498Z,20.32
2019-03-31T20:11:01.820Z,20.32
2019-03-31T20:13:50.046Z,20.31
2019-03-31T20:16:24.976Z,20.30
2019-03-31T20:19:10.955Z,20.26
2019-03-31T20:21:46.775Z,20.26
2019-03-31T20:24:33.013Z,20.26
2019-03-31T20:27:14.938Z,20.24
2019-03-31T20:29:47.718Z,20.22
2019-03-31T20:32:20.777Z,20.21
2019-03-31T20:35:00.354Z,20.19
2019-03-31T20:37:30.545Z,20.17
2019-03-31T20:40:03.043Z,20.15
2019-03-31T20:42:35.801Z,20.13
2019-03-31T20:45:06.391Z,20.13
2019-03-31T20:47:34.605Z,20.11
2019-03-31T20:50:03.077Z,20.10
2019-03-31T20:52:31.518Z,20.07
2019-03-31T20:54:59.711Z,20.06
2019-03-31T20:57:28.026Z,20.05
2019-03-31T20:59:57.835Z,20.03
2019-03-31T21:02:26.051Z,20.02
2019-03-31T21:04:54.254Z,20.00
2019-03-31T21:07:22.480Z,19.97
2019-03-31T21:09:50.703Z,19.97
2019-03-31T21:12:19.713Z,19.95
2019-03-31T21:14:47.927Z,19.94
2019-03-31T21:17:16.483Z,19.92
2019-03-31T21:19:45.463Z,19.91
2019-03-31T21:22:16.059Z,19.89
2019-03-31T21:24:44.320Z,19.89
2019-03-31T21:27:13.981Z,19.88
2019-03-31T21:29:42.282Z,19.85
2019-03-31T21:32:11.348Z,19.84
2019-03-31T21:34:39.557Z,19.82
2019-03-31T21:37:07.786Z,19.82
2019-03-31T21:39:36.301Z,19.80
2019-03-31T21:42:04.524Z,19.77
2019-03-31T21:44:32.717Z,19.77
2019-03-31T21:47:00.931Z,19.77
2019-03-31T21:49:29.139Z,19.76
2019-03-31T21:51:57.348Z,19.74
2019-03-31T21:54:25.569Z,19.72
2019-03-31T21:56:54.027Z,19.69
2019-03-31T21:59:23.872Z,19.68
2019-03-31T22:01:53.235Z,19.69
2019-03-31T22:04:21.438Z,19.66
2019-03-31T22:06:49.655Z,19.63
2019-03-31T22:09:17.855Z,19.63
2019-03-31T22:11:46.440Z,19.61
2019-03-31T22:14:15.028Z,19.60
2019-03-31T22:16:43.246Z,19.57
2019-03-31T22:19:11.646Z,19.56
2019-03-31T22:21:39.856Z,19.54
2019-03-31T22:24:08.076Z,19.51
2019-03-31T22:26:36.600Z,19.50
2019-03-31T22:29:04.827Z,19.49
2019-03-31T22:31:33.029Z,19.47
2019-03-31T22:34:01.259Z,19.47
2019-03-31T22:36:29.456Z,19.45
2019-03-31T22:38:57.683Z,19.42
2019-03-31T22:41:25.875Z,19.43
2019-03-31T22:43:55.744Z,19.40
2019-03-31T22:46:23.939Z,19.41
2019-03-31T22:48:52.156Z,19.39
2019-03-31T22:51:20.360Z,19.36
2019-03-31T22:53:48.873Z,19.35
2019-03-31T22:56:17.345Z,19.34
2019-03-31T22:58:45.564Z,19.33
2019-03-31T23:01:14.118Z,19.32
2019-03-31T23:03:42.331Z,19.31
2019-03-31T23:06:10.791Z,19.31
2019-03-31T23:08:39.002Z,19.29
2019-03-31T23:11:07.521Z,19.28
2019-03-31T23:13:35.737Z,19.27
2019-03-31T23:16:03.929Z,19.26
2019-03-31T23:18:32.141Z,19.26
2019-03-31T23:21:00.341Z,19.26
2019-03-31T23:23:28.891Z,19.25
2019-03-31T23:25:57.095Z,19.23
2019-03-31T23:28:25.307Z,19.24
2019-03-31T23:30:53.506Z,19.23
2019-03-31T23:33:22.103Z,19.24
2019-03-31T23:35:50.580Z,19.22
2019-03-31T23:38:18.853Z,19.21
2019-03-31T23:40:47.443Z,19.22
2019-03-31T23:43:15.695Z,19.21
2019-03-31T23:45:44.196Z,19.22
2019-03-31T23:48:12.405Z,19.23
2019-03-31T23:50:40.615Z,19.22
2019-03-31T23:53:08.822Z,19.21
2019-03-31T23:55:37.040Z,19.21
2019-03-31T23:58:05.252Z,19.21
